sensor_id;sensor_type;location;lat;lon;timestamp;P1;durP1;ratioP1;P2;durP2;ratioP2
21432;SDS011;18592;49.708;10.900;2023-03-14T00:01:18;0.30;;;0.30;;
21432;SDS011;18592;49.708;10.900;2023-03-14T00:03:21;2.47;;;0.60;;
21432;SDS011;18592;49.708;10.900;2023-03-14T00:05:23;1.63;;;0.30;;
21432;SDS011;18592;49.708;10.900;2023-03-14T00:07:24;0.50;;;0.30;;
21432;SDS011;18592;49.708;10.900;2023-03-14T00:09:26;0.60;;;0.30;;
21432;SDS011;18592;49.708;10.900;2023-03-14T00:11:29;0.20;;;0.20;;
21432;SDS011;18592;49.708;10.900;2023-03-14T00:13:31;0.20;;;0.20;;
21432;SDS011;18592;49.708;10.900;2023-03-14T00:15:33;0.38;;;0.38;;
21432;SDS011;18592;49.708;10.900;2023-03-14T00:17:36;0.30;;;0.30;;
21432;SDS011;18592;49.708;10.900;2023-03-14T00:19:38;0.30;;;0.25;;
21432;SDS011;18592;49.708;10.900;2023-03-14T00:21:42;0.40;;;0.20;;
21432;SDS011;18592;49.708;10.900;2023-03-14T00:23:44;0.20;;;0.20;;
21432;SDS011;18592;49.708;10.900;2023-03-14T00:25:46;0.20;;;0.20;;
21432;SDS011;18592;49.708;10.900;2023-03-14T00:27:49;0.30;;;0.30;;
21432;SDS011;18592;49.708;10.900;2023-03-14T00:29:51;0.30;;;0.30;;
21432;SDS011;18592;49.708;10.900;2023-03-14T00:31:53;0.90;;;0.32;;
21432;SDS011;18592;49.708;10.900;2023-03-14T00:33:56;0.35;;;0.30;;
21432;SDS011;18592;49.708;10.900;2023-03-14T00:36:04;0.55;;;0.25;;
21432;SDS011;18592;49.708;10.900;2023-03-14T00:38:10;0.15;;;0.15;;
21432;SDS011;18592;49.708;10.900;2023-03-14T00:40:14;0.82;;;0.32;;
21432;SDS011;18592;49.708;10.900;2023-03-14T00:42:16;0.20;;;0.20;;
21432;SDS011;18592;49.708;10.900;2023-03-14T00:44:17;0.32;;;0.20;;
21432;SDS011;18592;49.708;10.900;2023-03-14T00:46:19;0.22;;;0.20;;
21432;SDS011;18592;49.708;10.900;2023-03-14T00:48:20;0.38;;;0.30;;
21432;SDS011;18592;49.708;10.900;2023-03-14T00:50:22;0.20;;;0.20;;
21432;SDS011;18592;49.708;10.900;2023-03-14T00:52:24;0.20;;;0.20;;
21432;SDS011;18592;49.708;10.900;2023-03-14T00:54:25;0.80;;;0.35;;
21432;SDS011;18592;49.708;10.900;2023-03-14T00:56:36;1.42;;;0.20;;
21432;SDS011;18592;49.708;10.900;2023-03-14T00:58:40;0.30;;;0.30;;
21432;SDS011;18592;49.708;10.900;2023-03-14T01:00:42;0.25;;;0.25;;
21432;SDS011;18592;49.708;10.900;2023-03-14T01:02:44;0.30;;;0.30;;
21432;SDS011;18592;49.708;10.900;2023-03-14T01:04:47;0.30;;;0.30;;
21432;SDS011;18592;49.708;10.900;2023-03-14T01:06:49;0.55;;;0.30;;
21432;SDS011;18592;49.708;10.900;2023-03-14T01:08:51;0.57;;;0.30;;
21432;SDS011;18592;49.708;10.900;2023-03-14T01:10:54;0.65;;;0.20;;
21432;SDS011;18592;49.708;10.900;2023-03-14T01:12:55;0.38;;;0.38;;
21432;SDS011;18592;49.708;10.900;2023-03-14T01:14:57;1.20;;;0.35;;
21432;SDS011;18592;49.708;10.900;2023-03-14T01:16:59;0.20;;;0.20;;
21432;SDS011;18592;49.708;10.900;2023-03-14T01:19:02;0.20;;;0.20;;
21432;SDS011;18592;49.708;10.900;2023-03-14T01:21:08;0.20;;;0.20;;
21432;SDS011;18592;49.708;10.900;2023-03-14T01:23:14;0.20;;;0.20;;
21432;SDS011;18592;49.708;10.900;2023-03-14T01:25:16;0.55;;;0.40;;
21432;SDS011;18592;49.708;10.900;2023-03-14T01:27:19;0.47;;;0.20;;
21432;SDS011;18592;49.708;10.900;2023-03-14T01:29:20;1.08;;;0.30;;
21432;SDS011;18592;49.708;10.900;2023-03-14T01:31:22;0.30;;;0.30;;
21432;SDS011;18592;49.708;10.900;2023-03-14T01:33:25;0.20;;;0.15;;
21432;SDS011;18592;49.708;10.900;2023-03-14T01:35:27;0.40;;;0.30;;
21432;SDS011;18592;49.708;10.900;2023-03-14T01:37:30;0.22;;;0.22;;
21432;SDS011;18592;49.708;10.900;2023-03-14T01:39:32;0.20;;;0.20;;
21432;SDS011;18592;49.708;10.900;2023-03-14T01:41:34;0.20;;;0.20;;
21432;SDS011;18592;49.708;10.900;2023-03-14T01:43:35;0.20;;;0.20;;
21432;SDS011;18592;49.708;10.900;2023-03-14T01:48:14;0.30;;;0.20;;
21432;SDS011;18592;49.708;10.900;2023-03-14T01:50:16;0.52;;;0.30;;
21432;SDS011;18592;49.708;10.900;2023-03-14T01:52:19;0.25;;;0.20;;
21432;SDS011;18592;49.708;10.900;2023-03-14T01:54:39;0.30;;;0.30;;
21432;SDS011;18592;49.708;10.900;2023-03-14T01:56:45;0.20;;;0.20;;
21432;SDS011;18592;49.708;10.900;2023-03-14T01:58:51;0.15;;;0.15;;
21432;SDS011;18592;49.708;10.900;2023-03-14T02:00:54;0.70;;;0.20;;
21432;SDS011;18592;49.708;10.900;2023-03-14T02:03:01;0.20;;;0.20;;
21432;SDS011;18592;49.708;10.900;2023-03-14T02:05:09;0.38;;;0.22;;
21432;SDS011;18592;49.708;10.900;2023-03-14T02:09:46;0.10;;;0.10;;
21432;SDS011;18592;49.708;10.900;2023-03-14T02:11:56;0.28;;;0.28;;
21432;SDS011;18592;49.708;10.900;2023-03-14T02:14:23;0.20;;;0.20;;
21432;SDS011;18592;49.708;10.900;2023-03-14T02:16:47;0.40;;;0.30;;
21432;SDS011;18592;49.708;10.900;2023-03-14T02:19:26;0.40;;;0.20;;
21432;SDS011;18592;49.708;10.900;2023-03-14T02:24:40;0.30;;;0.30;;
21432;SDS011;18592;49.708;10.900;2023-03-14T02:29:20;0.20;;;0.20;;
21432;SDS011;18592;49.708;10.900;2023-03-14T02:31:23;0.50;;;0.20;;
21432;SDS011;18592;49.708;10.900;2023-03-14T02:33:25;0.65;;;0.20;;
21432;SDS011;18592;49.708;10.900;2023-03-14T02:35:29;0.25;;;0.20;;
21432;SDS011;18592;49.708;10.900;2023-03-14T02:37:57;1.08;;;0.30;;
21432;SDS011;18592;49.708;10.900;2023-03-14T02:40:09;0.32;;;0.30;;
21432;SDS011;18592;49.708;10.900;2023-03-14T02:42:13;0.30;;;0.30;;
21432;SDS011;18592;49.708;10.900;2023-03-14T02:44:15;0.25;;;0.25;;
21432;SDS011;18592;49.708;10.900;2023-03-14T02:46:17;0.20;;;0.20;;
21432;SDS011;18592;49.708;10.900;2023-03-14T02:48:25;0.20;;;0.20;;
21432;SDS011;18592;49.708;10.900;2023-03-14T02:50:29;1.13;;;0.40;;
21432;SDS011;18592;49.708;10.900;2023-03-14T02:52:35;0.20;;;0.20;;
21432;SDS011;18592;49.708;10.900;2023-03-14T02:54:37;0.68;;;0.30;;
21432;SDS011;18592;49.708;10.900;2023-03-14T02:56:38;0.43;;;0.30;;
21432;SDS011;18592;49.708;10.900;2023-03-14T02:58:41;0.30;;;0.30;;
21432;SDS011;18592;49.708;10.900;2023-03-14T03:00:58;0.30;;;0.28;;
21432;SDS011;18592;49.708;10.900;2023-03-14T03:03:00;0.20;;;0.20;;
21432;SDS011;18592;49.708;10.900;2023-03-14T03:05:04;1.52;;;0.40;;
21432;SDS011;18592;49.708;10.900;2023-03-14T03:07:06;0.30;;;0.30;;
21432;SDS011;18592;49.708;10.900;2023-03-14T03:09:11;0.20;;;0.20;;
21432;SDS011;18592;49.708;10.900;2023-03-14T03:11:13;1.05;;;0.30;;
21432;SDS011;18592;49.708;10.900;2023-03-14T03:13:14;0.35;;;0.20;;
21432;SDS011;18592;49.708;10.900;2023-03-14T03:15:18;0.30;;;0.30;;
21432;SDS011;18592;49.708;10.900;2023-03-14T03:17:19;0.60;;;0.30;;
21432;SDS011;18592;49.708;10.900;2023-03-14T03:19:21;0.50;;;0.22;;
21432;SDS011;18592;49.708;10.900;2023-03-14T03:21:25;0.30;;;0.30;;
21432;SDS011;18592;49.708;10.900;2023-03-14T03:23:26;0.25;;;0.20;;
21432;SDS011;18592;49.708;10.900;2023-03-14T03:25:28;0.20;;;0.20;;
21432;SDS011;18592;49.708;10.900;2023-03-14T03:27:31;0.38;;;0.22;;
21432;SDS011;18592;49.708;10.900;2023-03-14T03:29:33;0.20;;;0.20;;
21432;SDS011;18592;49.708;10.900;2023-03-14T03:31:36;0.30;;;0.30;;
21432;SDS011;18592;49.708;10.900;2023-03-14T03:33:39;0.28;;;0.28;;
21432;SDS011;18592;49.708;10.900;2023-03-14T03:35:41;0.68;;;0.30;;
21432;SDS011;18592;49.708;10.900;2023-03-14T03:37:58;0.28;;;0.20;;
21432;SDS011;18592;49.708;10.900;2023-03-14T03:40:01;0.32;;;0.30;;
21432;SDS011;18592;49.708;10.900;2023-03-14T03:42:05;0.20;;;0.20;;
21432;SDS011;18592;49.708;10.900;2023-03-14T03:44:06;0.20;;;0.20;;
21432;SDS011;18592;49.708;10.900;2023-03-14T03:46:08;0.88;;;0.20;;
21432;SDS011;18592;49.708;10.900;2023-03-14T03:48:13;0.30;;;0.20;;
21432;SDS011;18592;49.708;10.900;2023-03-14T03:50:15;0.28;;;0.28;;
21432;SDS011;18592;49.708;10.900;2023-03-14T03:52:16;0.22;;;0.20;;
21432;SDS011;18592;49.708;10.900;2023-03-14T03:54:18;0.20;;;0.20;;
21432;SDS011;18592;49.708;10.900;2023-03-14T03:56:21;0.60;;;0.30;;
21432;SDS011;18592;49.708;10.900;2023-03-14T03:58:24;0.57;;;0.28;;
21432;SDS011;18592;49.708;10.900;2023-03-14T04:00:25;0.20;;;0.20;;
21432;SDS011;18592;49.708;10.900;2023-03-14T04:02:27;0.73;;;0.30;;
21432;SDS011;18592;49.708;10.900;2023-03-14T04:04:29;0.20;;;0.20;;
21432;SDS011;18592;49.708;10.900;2023-03-14T04:06:40;0.32;;;0.20;;
21432;SDS011;18592;49.708;10.900;2023-03-14T04:08:43;0.60;;;0.38;;
21432;SDS011;18592;49.708;10.900;2023-03-14T04:11:07;0.32;;;0.30;;
21432;SDS011;18592;49.708;10.900;2023-03-14T04:13:23;0.38;;;0.30;;
21432;SDS011;18592;49.708;10.900;2023-03-14T04:15:27;0.60;;;0.60;;
21432;SDS011;18592;49.708;10.900;2023-03-14T04:17:29;0.98;;;0.40;;
21432;SDS011;18592;49.708;10.900;2023-03-14T04:19:33;0.57;;;0.30;;
21432;SDS011;18592;49.708;10.900;2023-03-14T04:21:37;1.05;;;0.30;;
21432;SDS011;18592;49.708;10.900;2023-03-14T04:23:44;1.02;;;0.32;;
21432;SDS011;18592;49.708;10.900;2023-03-14T04:25:45;0.20;;;0.20;;
21432;SDS011;18592;49.708;10.900;2023-03-14T04:27:47;0.60;;;0.28;;
21432;SDS011;18592;49.708;10.900;2023-03-14T04:29:56;0.52;;;0.25;;
21432;SDS011;18592;49.708;10.900;2023-03-14T04:32:16;0.20;;;0.20;;
21432;SDS011;18592;49.708;10.900;2023-03-14T04:34:17;0.25;;;0.25;;
21432;SDS011;18592;49.708;10.900;2023-03-14T04:36:25;0.17;;;0.17;;
21432;SDS011;18592;49.708;10.900;2023-03-14T04:38:27;0.10;;;0.10;;
21432;SDS011;18592;49.708;10.900;2023-03-14T04:40:29;0.20;;;0.20;;
21432;SDS011;18592;49.708;10.900;2023-03-14T04:42:35;0.28;;;0.20;;
21432;SDS011;18592;49.708;10.900;2023-03-14T04:44:37;0.20;;;0.20;;
21432;SDS011;18592;49.708;10.900;2023-03-14T04:46:40;0.30;;;0.30;;
21432;SDS011;18592;49.708;10.900;2023-03-14T04:48:41;0.70;;;0.40;;
21432;SDS011;18592;49.708;10.900;2023-03-14T04:50:43;0.38;;;0.30;;
21432;SDS011;18592;49.708;10.900;2023-03-14T04:52:45;0.30;;;0.30;;
21432;SDS011;18592;49.708;10.900;2023-03-14T04:54:53;0.20;;;0.20;;
21432;SDS011;18592;49.708;10.900;2023-03-14T04:56:57;0.30;;;0.30;;
21432;SDS011;18592;49.708;10.900;2023-03-14T04:58:59;0.45;;;0.30;;
21432;SDS011;18592;49.708;10.900;2023-03-14T05:01:03;0.20;;;0.20;;
21432;SDS011;18592;49.708;10.900;2023-03-14T05:03:17;0.20;;;0.20;;
21432;SDS011;18592;49.708;10.900;2023-03-14T05:05:31;0.25;;;0.25;;
21432;SDS011;18592;49.708;10.900;2023-03-14T05:07:41;0.40;;;0.20;;
21432;SDS011;18592;49.708;10.900;2023-03-14T05:09:58;0.45;;;0.30;;
21432;SDS011;18592;49.708;10.900;2023-03-14T05:12:14;0.65;;;0.30;;
21432;SDS011;18592;49.708;10.900;2023-03-14T05:14:43;0.35;;;0.35;;
21432;SDS011;18592;49.708;10.900;2023-03-14T05:17:09;0.50;;;0.22;;
21432;SDS011;18592;49.708;10.900;2023-03-14T05:19:11;0.38;;;0.20;;
21432;SDS011;18592;49.708;10.900;2023-03-14T05:21:33;0.52;;;0.32;;
21432;SDS011;18592;49.708;10.900;2023-03-14T05:23:50;0.20;;;0.20;;
21432;SDS011;18592;49.708;10.900;2023-03-14T05:26:18;0.47;;;0.43;;
21432;SDS011;18592;49.708;10.900;2023-03-14T05:28:40;1.63;;;0.38;;
21432;SDS011;18592;49.708;10.900;2023-03-14T05:30:52;0.22;;;0.20;;
21432;SDS011;18592;49.708;10.900;2023-03-14T05:33:17;0.30;;;0.30;;
21432;SDS011;18592;49.708;10.900;2023-03-14T05:35:30;0.22;;;0.20;;
21432;SDS011;18592;49.708;10.900;2023-03-14T05:37:38;0.30;;;0.30;;
21432;SDS011;18592;49.708;10.900;2023-03-14T05:39:59;1.48;;;0.35;;
21432;SDS011;18592;49.708;10.900;2023-03-14T05:42:19;0.35;;;0.30;;
21432;SDS011;18592;49.708;10.900;2023-03-14T05:44:49;0.30;;;0.30;;
21432;SDS011;18592;49.708;10.900;2023-03-14T05:47:09;0.80;;;0.38;;
21432;SDS011;18592;49.708;10.900;2023-03-14T05:49:19;0.65;;;0.50;;
21432;SDS011;18592;49.708;10.900;2023-03-14T05:51:33;0.50;;;0.40;;
21432;SDS011;18592;49.708;10.900;2023-03-14T05:54:00;0.25;;;0.20;;
21432;SDS011;18592;49.708;10.900;2023-03-14T05:56:18;0.38;;;0.30;;
21432;SDS011;18592;49.708;10.900;2023-03-14T05:58:29;0.55;;;0.40;;
21432;SDS011;18592;49.708;10.900;2023-03-14T06:00:41;1.08;;;0.43;;
21432;SDS011;18592;49.708;10.900;2023-03-14T06:02:56;0.50;;;0.40;;
21432;SDS011;18592;49.708;10.900;2023-03-14T06:05:04;0.52;;;0.50;;
21432;SDS011;18592;49.708;10.900;2023-03-14T06:07:07;0.30;;;0.30;;
21432;SDS011;18592;49.708;10.900;2023-03-14T06:09:08;2.80;;;0.45;;
21432;SDS011;18592;49.708;10.900;2023-03-14T06:11:13;1.23;;;0.50;;
21432;SDS011;18592;49.708;10.900;2023-03-14T06:13:15;1.60;;;0.50;;
21432;SDS011;18592;49.708;10.900;2023-03-14T06:15:17;0.90;;;0.50;;
21432;SDS011;18592;49.708;10.900;2023-03-14T06:17:22;0.70;;;0.35;;
21432;SDS011;18592;49.708;10.900;2023-03-14T06:19:30;0.47;;;0.30;;
21432;SDS011;18592;49.708;10.900;2023-03-14T06:21:32;0.38;;;0.30;;
21432;SDS011;18592;49.708;10.900;2023-03-14T06:23:33;0.40;;;0.30;;
21432;SDS011;18592;49.708;10.900;2023-03-14T06:25:36;0.40;;;0.40;;
21432;SDS011;18592;49.708;10.900;2023-03-14T06:27:38;0.32;;;0.30;;
21432;SDS011;18592;49.708;10.900;2023-03-14T06:29:39;0.77;;;0.50;;
21432;SDS011;18592;49.708;10.900;2023-03-14T06:31:42;0.60;;;0.50;;
21432;SDS011;18592;49.708;10.900;2023-03-14T06:33:44;0.70;;;0.40;;
21432;SDS011;18592;49.708;10.900;2023-03-14T06:35:46;0.40;;;0.40;;
21432;SDS011;18592;49.708;10.900;2023-03-14T06:37:48;0.65;;;0.50;;
21432;SDS011;18592;49.708;10.900;2023-03-14T06:39:52;0.68;;;0.43;;
21432;SDS011;18592;49.708;10.900;2023-03-14T06:42:09;0.40;;;0.40;;
21432;SDS011;18592;49.708;10.900;2023-03-14T06:44:13;0.43;;;0.30;;
21432;SDS011;18592;49.708;10.900;2023-03-14T06:46:16;0.77;;;0.50;;
21432;SDS011;18592;49.708;10.900;2023-03-14T06:48:18;0.95;;;0.40;;
21432;SDS011;18592;49.708;10.900;2023-03-14T06:50:25;0.60;;;0.40;;
21432;SDS011;18592;49.708;10.900;2023-03-14T06:52:26;0.40;;;0.40;;
21432;SDS011;18592;49.708;10.900;2023-03-14T06:54:28;0.40;;;0.30;;
21432;SDS011;18592;49.708;10.900;2023-03-14T06:56:30;0.57;;;0.40;;
21432;SDS011;18592;49.708;10.900;2023-03-14T06:58:32;0.47;;;0.40;;
21432;SDS011;18592;49.708;10.900;2023-03-14T07:00:36;0.60;;;0.50;;
21432;SDS011;18592;49.708;10.900;2023-03-14T07:02:37;0.60;;;0.30;;
21432;SDS011;18592;49.708;10.900;2023-03-14T07:04:53;0.63;;;0.50;;
21432;SDS011;18592;49.708;10.900;2023-03-14T07:06:55;0.40;;;0.30;;
21432;SDS011;18592;49.708;10.900;2023-03-14T07:08:57;1.02;;;0.50;;
21432;SDS011;18592;49.708;10.900;2023-03-14T07:10:59;1.23;;;0.40;;
21432;SDS011;18592;49.708;10.900;2023-03-14T07:13:02;0.30;;;0.30;;
21432;SDS011;18592;49.708;10.900;2023-03-14T07:15:08;0.75;;;0.40;;
21432;SDS011;18592;49.708;10.900;2023-03-14T07:17:23;1.65;;;0.40;;
21432;SDS011;18592;49.708;10.900;2023-03-14T07:19:25;0.95;;;0.40;;
21432;SDS011;18592;49.708;10.900;2023-03-14T07:21:30;1.13;;;0.30;;
21432;SDS011;18592;49.708;10.900;2023-03-14T07:23:39;0.47;;;0.47;;
21432;SDS011;18592;49.708;10.900;2023-03-14T07:25:42;0.68;;;0.40;;
21432;SDS011;18592;49.708;10.900;2023-03-14T07:27:51;0.80;;;0.57;;
21432;SDS011;18592;49.708;10.900;2023-03-14T07:29:52;0.70;;;0.30;;
21432;SDS011;18592;49.708;10.900;2023-03-14T07:31:54;2.70;;;0.70;;
21432;SDS011;18592;49.708;10.900;2023-03-14T07:33:56;0.77;;;0.57;;
21432;SDS011;18592;49.708;10.900;2023-03-14T07:36:03;0.60;;;0.47;;
21432;SDS011;18592;49.708;10.900;2023-03-14T07:38:05;0.70;;;0.40;;
21432;SDS011;18592;49.708;10.900;2023-03-14T07:40:12;2.05;;;0.50;;
21432;SDS011;18592;49.708;10.900;2023-03-14T07:42:16;1.75;;;0.55;;
21432;SDS011;18592;49.708;10.900;2023-03-14T07:44:31;2.00;;;0.63;;
21432;SDS011;18592;49.708;10.900;2023-03-14T07:46:35;1.25;;;0.40;;
21432;SDS011;18592;49.708;10.900;2023-03-14T07:48:37;1.45;;;0.50;;
21432;SDS011;18592;49.708;10.900;2023-03-14T07:50:38;1.08;;;0.40;;
21432;SDS011;18592;49.708;10.900;2023-03-14T07:52:40;1.52;;;0.70;;
21432;SDS011;18592;49.708;10.900;2023-03-14T07:54:41;1.02;;;0.63;;
21432;SDS011;18592;49.708;10.900;2023-03-14T07:56:43;1.17;;;0.45;;
21432;SDS011;18592;49.708;10.900;2023-03-14T07:58:44;1.85;;;0.70;;
21432;SDS011;18592;49.708;10.900;2023-03-14T08:00:46;2.65;;;0.70;;
21432;SDS011;18592;49.708;10.900;2023-03-14T08:02:48;1.77;;;0.50;;
21432;SDS011;18592;49.708;10.900;2023-03-14T08:04:50;1.52;;;0.60;;
21432;SDS011;18592;49.708;10.900;2023-03-14T08:06:51;1.73;;;0.70;;
21432;SDS011;18592;49.708;10.900;2023-03-14T08:08:55;1.60;;;0.55;;
21432;SDS011;18592;49.708;10.900;2023-03-14T08:11:06;1.00;;;0.50;;
21432;SDS011;18592;49.708;10.900;2023-03-14T08:13:12;1.55;;;0.60;;
21432;SDS011;18592;49.708;10.900;2023-03-14T08:15:15;1.42;;;0.57;;
21432;SDS011;18592;49.708;10.900;2023-03-14T08:17:22;1.02;;;0.43;;
21432;SDS011;18592;49.708;10.900;2023-03-14T08:19:30;1.85;;;0.60;;
21432;SDS011;18592;49.708;10.900;2023-03-14T08:21:34;1.75;;;0.50;;
21432;SDS011;18592;49.708;10.900;2023-03-14T08:23:38;1.05;;;0.60;;
21432;SDS011;18592;49.708;10.900;2023-03-14T08:25:40;0.93;;;0.60;;
21432;SDS011;18592;49.708;10.900;2023-03-14T08:27:41;0.90;;;0.57;;
21432;SDS011;18592;49.708;10.900;2023-03-14T08:29:43;2.15;;;0.73;;
21432;SDS011;18592;49.708;10.900;2023-03-14T08:31:45;1.20;;;0.52;;
21432;SDS011;18592;49.708;10.900;2023-03-14T08:33:47;0.90;;;0.60;;
21432;SDS011;18592;49.708;10.900;2023-03-14T08:35:48;1.80;;;0.73;;
21432;SDS011;18592;49.708;10.900;2023-03-14T08:37:53;1.63;;;0.60;;
21432;SDS011;18592;49.708;10.900;2023-03-14T08:39:54;1.55;;;0.68;;
21432;SDS011;18592;49.708;10.900;2023-03-14T08:42:05;2.22;;;0.70;;
21432;SDS011;18592;49.708;10.900;2023-03-14T08:44:07;2.08;;;0.50;;
21432;SDS011;18592;49.708;10.900;2023-03-14T08:46:09;0.95;;;0.60;;
21432;SDS011;18592;49.708;10.900;2023-03-14T08:48:10;1.55;;;0.57;;
21432;SDS011;18592;49.708;10.900;2023-03-14T08:50:12;0.47;;;0.35;;
21432;SDS011;18592;49.708;10.900;2023-03-14T08:52:16;2.15;;;0.47;;
21432;SDS011;18592;49.708;10.900;2023-03-14T08:54:18;1.42;;;0.60;;
21432;SDS011;18592;49.708;10.900;2023-03-14T08:56:20;1.67;;;0.45;;
21432;SDS011;18592;49.708;10.900;2023-03-14T08:58:25;1.02;;;0.63;;
21432;SDS011;18592;49.708;10.900;2023-03-14T09:00:27;2.83;;;0.70;;
21432;SDS011;18592;49.708;10.900;2023-03-14T09:02:28;2.58;;;0.60;;
21432;SDS011;18592;49.708;10.900;2023-03-14T09:04:33;1.70;;;0.60;;
21432;SDS011;18592;49.708;10.900;2023-03-14T09:06:34;0.88;;;0.50;;
21432;SDS011;18592;49.708;10.900;2023-03-14T09:08:36;1.58;;;0.40;;
21432;SDS011;18592;49.708;10.900;2023-03-14T09:10:39;2.58;;;0.77;;
21432;SDS011;18592;49.708;10.900;2023-03-14T09:12:41;1.02;;;0.47;;
21432;SDS011;18592;49.708;10.900;2023-03-14T09:14:43;1.90;;;0.47;;
21432;SDS011;18592;49.708;10.900;2023-03-14T09:16:45;1.20;;;0.30;;
21432;SDS011;18592;49.708;10.900;2023-03-14T09:18:46;2.42;;;0.70;;
21432;SDS011;18592;49.708;10.900;2023-03-14T09:20:48;0.70;;;0.60;;
21432;SDS011;18592;49.708;10.900;2023-03-14T09:22:50;1.55;;;0.50;;
21432;SDS011;18592;49.708;10.900;2023-03-14T09:24:52;1.67;;;0.50;;
21432;SDS011;18592;49.708;10.900;2023-03-14T09:26:54;1.20;;;0.40;;
21432;SDS011;18592;49.708;10.900;2023-03-14T09:28:57;1.85;;;0.50;;
21432;SDS011;18592;49.708;10.900;2023-03-14T09:31:05;1.15;;;0.60;;
21432;SDS011;18592;49.708;10.900;2023-03-14T09:33:07;0.63;;;0.40;;
21432;SDS011;18592;49.708;10.900;2023-03-14T09:35:09;0.57;;;0.38;;
21432;SDS011;18592;49.708;10.900;2023-03-14T09:37:11;0.85;;;0.35;;
21432;SDS011;18592;49.708;10.900;2023-03-14T09:39:12;1.55;;;0.60;;
21432;SDS011;18592;49.708;10.900;2023-03-14T09:43:30;1.40;;;0.38;;
21432;SDS011;18592;49.708;10.900;2023-03-14T09:45:35;1.48;;;0.40;;
21432;SDS011;18592;49.708;10.900;2023-03-14T09:47:41;1.60;;;0.50;;
21432;SDS011;18592;49.708;10.900;2023-03-14T09:50:00;0.73;;;0.43;;
21432;SDS011;18592;49.708;10.900;2023-03-14T09:52:07;0.47;;;0.40;;
21432;SDS011;18592;49.708;10.900;2023-03-14T09:54:26;1.00;;;0.30;;
21432;SDS011;18592;49.708;10.900;2023-03-14T09:56:34;1.42;;;0.50;;
21432;SDS011;18592;49.708;10.900;2023-03-14T09:58:36;0.98;;;0.50;;
21432;SDS011;18592;49.708;10.900;2023-03-14T10:00:39;1.17;;;0.40;;
21432;SDS011;18592;49.708;10.900;2023-03-14T10:02:54;1.15;;;0.40;;
21432;SDS011;18592;49.708;10.900;2023-03-14T10:04:58;2.30;;;0.32;;
21432;SDS011;18592;49.708;10.900;2023-03-14T10:07:08;0.45;;;0.30;;
21432;SDS011;18592;49.708;10.900;2023-03-14T10:09:21;1.52;;;0.38;;
21432;SDS011;18592;49.708;10.900;2023-03-14T10:11:27;0.82;;;0.40;;
21432;SDS011;18592;49.708;10.900;2023-03-14T10:13:32;3.03;;;1.90;;
21432;SDS011;18592;49.708;10.900;2023-03-14T10:15:33;3.08;;;2.17;;
21432;SDS011;18592;49.708;10.900;2023-03-14T10:17:42;3.90;;;2.63;;
21432;SDS011;18592;49.708;10.900;2023-03-14T10:19:51;3.13;;;2.20;;
21432;SDS011;18592;49.708;10.900;2023-03-14T10:21:55;2.17;;;1.40;;
21432;SDS011;18592;49.708;10.900;2023-03-14T10:26:24;1.60;;;1.20;;
21432;SDS011;18592;49.708;10.900;2023-03-14T10:28:29;3.17;;;1.00;;
21432;SDS011;18592;49.708;10.900;2023-03-14T10:32:40;1.33;;;0.63;;
21432;SDS011;18592;49.708;10.900;2023-03-14T10:35:03;1.23;;;0.50;;
21432;SDS011;18592;49.708;10.900;2023-03-14T10:37:24;1.35;;;0.70;;
21432;SDS011;18592;49.708;10.900;2023-03-14T10:39:30;1.73;;;0.60;;
21432;SDS011;18592;49.708;10.900;2023-03-14T10:41:53;0.57;;;0.50;;
21432;SDS011;18592;49.708;10.900;2023-03-14T10:43:57;1.13;;;0.30;;
21432;SDS011;18592;49.708;10.900;2023-03-14T10:46:14;0.90;;;0.40;;
21432;SDS011;18592;49.708;10.900;2023-03-14T10:48:38;1.67;;;0.80;;
21432;SDS011;18592;49.708;10.900;2023-03-14T10:53:07;2.17;;;0.70;;
21432;SDS011;18592;49.708;10.900;2023-03-14T10:55:11;1.75;;;0.70;;
21432;SDS011;18592;49.708;10.900;2023-03-14T10:57:14;0.98;;;0.60;;
21432;SDS011;18592;49.708;10.900;2023-03-14T10:59:16;1.60;;;0.50;;
21432;SDS011;18592;49.708;10.900;2023-03-14T11:06:58;0.85;;;0.50;;
21432;SDS011;18592;49.708;10.900;2023-03-14T11:09:18;1.15;;;0.50;;
21432;SDS011;18592;49.708;10.900;2023-03-14T11:11:29;0.20;;;0.20;;
21432;SDS011;18592;49.708;10.900;2023-03-14T11:13:43;0.90;;;0.40;;
21432;SDS011;18592;49.708;10.900;2023-03-14T11:16:01;1.67;;;0.50;;
21432;SDS011;18592;49.708;10.900;2023-03-14T11:20:43;0.85;;;0.43;;
21432;SDS011;18592;49.708;10.900;2023-03-14T11:22:56;0.32;;;0.32;;
21432;SDS011;18592;49.708;10.900;2023-03-14T11:25:12;0.50;;;0.20;;
21432;SDS011;18592;49.708;10.900;2023-03-14T11:29:36;0.95;;;0.30;;
21432;SDS011;18592;49.708;10.900;2023-03-14T11:31:52;0.35;;;0.20;;
21432;SDS011;18592;49.708;10.900;2023-03-14T11:36:08;0.32;;;0.20;;
21432;SDS011;18592;49.708;10.900;2023-03-14T11:40:27;0.22;;;0.20;;
21432;SDS011;18592;49.708;10.900;2023-03-14T11:42:32;0.25;;;0.20;;
21432;SDS011;18592;49.708;10.900;2023-03-14T11:44:36;0.28;;;0.20;;
21432;SDS011;18592;49.708;10.900;2023-03-14T11:46:42;0.57;;;0.17;;
21432;SDS011;18592;49.708;10.900;2023-03-14T11:51:01;0.65;;;0.32;;
21432;SDS011;18592;49.708;10.900;2023-03-14T11:53:14;0.30;;;0.30;;
21432;SDS011;18592;49.708;10.900;2023-03-14T11:55:24;0.77;;;0.38;;
21432;SDS011;18592;49.708;10.900;2023-03-14T11:57:31;1.65;;;0.63;;
21432;SDS011;18592;49.708;10.900;2023-03-14T11:59:45;0.43;;;0.30;;
21432;SDS011;18592;49.708;10.900;2023-03-14T12:01:53;0.30;;;0.30;;
21432;SDS011;18592;49.708;10.900;2023-03-14T12:05:14;0.30;;;0.30;;
21432;SDS011;18592;49.708;10.900;2023-03-14T12:06:47;0.20;;;0.20;;
21432;SDS011;18592;49.708;10.900;2023-03-14T12:08:53;0.20;;;0.20;;
21432;SDS011;18592;49.708;10.900;2023-03-14T12:11:09;0.22;;;0.20;;
21432;SDS011;18592;49.708;10.900;2023-03-14T12:13:16;0.30;;;0.30;;
21432;SDS011;18592;49.708;10.900;2023-03-14T12:15:25;1.17;;;0.30;;
21432;SDS011;18592;49.708;10.900;2023-03-14T12:17:27;0.85;;;0.20;;
21432;SDS011;18592;49.708;10.900;2023-03-14T12:19:38;0.47;;;0.20;;
21432;SDS011;18592;49.708;10.900;2023-03-14T12:21:51;0.55;;;0.30;;
21432;SDS011;18592;49.708;10.900;2023-03-14T12:23:58;0.30;;;0.25;;
21432;SDS011;18592;49.708;10.900;2023-03-14T12:26:06;0.35;;;0.20;;
21432;SDS011;18592;49.708;10.900;2023-03-14T12:28:21;0.35;;;0.30;;
21432;SDS011;18592;49.708;10.900;2023-03-14T12:32:33;1.63;;;0.40;;
21432;SDS011;18592;49.708;10.900;2023-03-14T12:34:39;1.05;;;0.40;;
21432;SDS011;18592;49.708;10.900;2023-03-14T12:39:17;0.40;;;0.30;;
21432;SDS011;18592;49.708;10.900;2023-03-14T12:41:44;0.28;;;0.20;;
21432;SDS011;18592;49.708;10.900;2023-03-14T12:46:47;0.10;;;0.10;;
21432;SDS011;18592;49.708;10.900;2023-03-14T12:48:55;0.13;;;0.13;;
21432;SDS011;18592;49.708;10.900;2023-03-14T12:51:12;0.45;;;0.25;;
21432;SDS011;18592;49.708;10.900;2023-03-14T12:55:40;0.20;;;0.20;;
21432;SDS011;18592;49.708;10.900;2023-03-14T12:57:56;0.10;;;0.10;;
21432;SDS011;18592;49.708;10.900;2023-03-14T13:00:11;1.35;;;0.30;;
21432;SDS011;18592;49.708;10.900;2023-03-14T13:02:28;0.20;;;0.20;;
21432;SDS011;18592;49.708;10.900;2023-03-14T13:04:44;0.20;;;0.10;;
21432;SDS011;18592;49.708;10.900;2023-03-14T13:11:34;0.10;;;0.10;;
21432;SDS011;18592;49.708;10.900;2023-03-14T13:13:41;0.20;;;0.20;;
21432;SDS011;18592;49.708;10.900;2023-03-14T13:15:47;0.30;;;0.30;;
21432;SDS011;18592;49.708;10.900;2023-03-14T13:17:53;0.20;;;0.20;;
21432;SDS011;18592;49.708;10.900;2023-03-14T13:20:19;0.30;;;0.30;;
21432;SDS011;18592;49.708;10.900;2023-03-14T13:22:29;1.40;;;0.38;;